Time;durP1;ratioP1;P1;durP2;ratioP2;P2;SDS_P1;SDS_P2;PMS_P1;PMS_P2;Temp;Humidity;BMP_temperature;BMP_pressure;BME280_temperature;BME280_humidity;BME280_pressure;Samples;Min_cycle;Max_cycle;Signal;HPM_P1;HPM_P2
2023/09/15 00:02:07;;;;;;;;;;;;;;;18.43;78.45;95349.19;5115630;28;1985;-57
2023/09/15 00:04:33;;;;;;;;;;;;;;;18.38;78.38;95348.97;5115955;28;1035;-56
2023/09/15 00:06:59;;;;;;;;;;;;;;;18.22;79.13;95355.59;5116140;28;961;-57
2023/09/15 00:09:25;;;;;;;;;;;;;;;17.97;80.27;95352.59;5116014;28;978;-57
2023/09/15 00:11:51;;;;;;;;;;;;;;;17.94;80.71;95356.53;5115356;28;1048;-57
2023/09/15 00:14:18;;;;;;;;;;;;;;;17.91;80.73;95359.66;5115576;28;1149;-57
2023/09/15 00:16:44;;;;;;;;;;;;;;;18.11;79.48;95365.94;5115954;28;1060;-57
2023/09/15 00:19:14;;;;;;;;;;;;;;;17.97;80.40;95361.53;5115683;28;1063;-56
2023/09/15 00:21:41;;;;;;;;;;;;;;;17.98;80.24;95359.66;5115601;28;1918;-55
2023/09/15 00:24:07;;;;;;;;;;;;;;;17.94;80.19;95362.75;5115578;28;1028;-56
2023/09/15 00:26:33;;;;;;;;;;;;;;;17.88;80.57;95363.56;5115311;28;1032;-56
2023/09/15 00:28:59;;;;;;;;;;;;;;;17.82;80.72;95363.53;5115737;28;975;-57
2023/09/15 00:31:26;;;;;;;;;;;;;;;17.76;81.32;95374.09;5126278;27;2516;-56
2023/09/15 00:33:52;;;;;;;;;;;;;;;17.70;81.72;95372.22;5136195;27;1047;-56
2023/09/15 00:36:18;;;;;;;;;;;;;;;17.54;82.06;95369.81;5135706;27;1095;-56
2023/09/15 00:38:44;;;;;;;;;;;;;;;17.55;82.22;95364.22;5135838;27;1048;-56
2023/09/15 00:41:10;;;;;;;;;;;;;;;17.46;82.46;95364.56;5135805;27;1957;-56
2023/09/15 00:43:37;;;;;;;;;;;;;;;17.30;83.22;95366.56;5135941;27;1059;-56
2023/09/15 00:46:03;;;;;;;;;;;;;;;17.32;83.26;95369.03;5135868;27;956;-56
2023/09/15 00:48:29;;;;;;;;;;;;;;;17.30;83.15;95366.56;5135511;27;1111;-56
2023/09/15 00:50:55;;;;;;;;;;;;;;;17.31;83.06;95364.69;5135836;27;996;-57
2023/09/15 00:53:21;;;;;;;;;;;;;;;17.29;83.27;95373.00;5135485;27;1050;-56
2023/09/15 00:55:48;;;;;;;;;;;;;;;17.24;83.10;95371.91;5135362;27;1039;-56
2023/09/15 00:58:15;;;;;;;;;;;;;;;17.41;82.51;95375.13;5130074;27;1318;-56
2023/09/15 01:00:42;;;;;;;;;;;;;;;17.58;81.59;95367.56;5114191;28;1987;-57
2023/09/15 01:03:09;;;;;;;;;;;;;;;17.39;82.48;95366.41;5094617;28;997;-57
2023/09/15 01:05:35;;;;;;;;;;;;;;;17.35;82.50;95379.47;5093744;28;969;-57
2023/09/15 01:08:03;;;;;;;;;;;;;;;17.36;82.43;95379.28;5094238;28;1037;-56
2023/09/15 01:10:29;;;;;;;;;;;;;;;17.15;83.73;95379.34;5094067;28;1040;-56
2023/09/15 01:12:55;;;;;;;;;;;;;;;17.10;83.87;95376.38;5094481;28;966;-56
2023/09/15 01:15:34;;;;;;;;;;;;;;;17.22;83.36;95380.22;5094149;28;1091;-56
2023/09/15 01:18:16;;;;;;;;;;;;;;;17.31;82.68;95375.50;5094254;28;985;-56
2023/09/15 01:20:42;;;;;;;;;;;;;;;17.42;82.23;95380.34;5094263;28;1914;-56
2023/09/15 01:23:20;;;;;;;;;;;;;;;17.39;82.43;95388.84;5099422;28;2466;-56
2023/09/15 01:25:52;;;;;;;;;;;;;;;17.41;82.84;95391.34;5114289;28;1092;-57
2023/09/15 01:28:33;;;;;;;;;;;;;;;17.35;82.73;95385.69;5114339;28;968;-56
2023/09/15 01:31:00;;;;;;;;;;;;;;;17.09;83.59;95391.78;5114350;28;965;-56
2023/09/15 01:33:27;;;;;;;;;;;;;;;17.04;84.18;95388.81;5114067;28;1021;-56
2023/09/15 01:35:53;;;;;;;;;;;;;;;17.10;83.40;95390.72;5114439;28;1040;-56
2023/09/15 01:38:19;;;;;;;;;;;;;;;17.02;83.88;95390.03;5114001;28;1024;-57
2023/09/15 01:40:45;;;;;;;;;;;;;;;17.02;83.60;95390.03;5114306;28;1919;-56
2023/09/15 01:43:11;;;;;;;;;;;;;;;17.04;84.17;95391.50;5113995;28;1951;-56
2023/09/15 01:45:37;;;;;;;;;;;;;;;17.05;83.69;95395.03;5114022;28;1126;-56
2023/09/15 01:48:04;;;;;;;;;;;;;;;17.23;82.76;95403.50;5113956;28;950;-56
2023/09/15 01:50:31;;;;;;;;;;;;;;;17.15;83.21;95403.66;5112815;28;2614;-56
2023/09/15 01:52:57;;;;;;;;;;;;;;;16.84;83.84;95399.44;5114110;28;946;-56
2023/09/15 01:55:24;;;;;;;;;;;;;;;16.89;84.22;95402.38;5113798;28;1895;-56
2023/09/15 01:57:50;;;;;;;;;;;;;;;16.98;84.25;95405.81;5113937;28;1291;-56
2023/09/15 02:00:16;;;;;;;;;;;;;;;16.84;84.68;95396.72;5113825;28;974;-56
2023/09/15 02:02:42;;;;;;;;;;;;;;;17.00;83.73;95394.78;5130981;27;1902;-56
2023/09/15 02:05:14;;;;;;;;;;;;;;;16.91;84.15;95397.63;5134348;28;2053;-56
2023/09/15 02:07:40;;;;;;;;;;;;;;;16.88;83.87;95391.78;5134540;28;1044;-56
2023/09/15 02:10:06;;;;;;;;;;;;;;;16.82;84.48;95396.09;5134581;28;1040;-56
2023/09/15 02:12:32;;;;;;;;;;;;;;;16.83;84.48;95399.63;5134158;28;1076;-56
2023/09/15 02:14:58;;;;;;;;;;;;;;;16.91;83.77;95404.91;5134503;28;988;-55
2023/09/15 02:17:24;;;;;;;;;;;;;;;16.85;84.22;95405.69;5135561;27;1040;-55
2023/09/15 02:19:50;;;;;;;;;;;;;;;16.80;84.56;95406.22;5138787;27;1024;-55
2023/09/15 02:22:17;;;;;;;;;;;;;;;16.53;86.13;95408.66;5138485;27;1906;-55
2023/09/15 02:24:43;;;;;;;;;;;;;;;16.42;86.81;95406.47;5138518;27;1063;-55
2023/09/15 02:27:09;;;;;;;;;;;;;;;16.55;86.50;95409.31;5138353;27;1079;-55
2023/09/15 02:29:35;;;;;;;;;;;;;;;16.63;85.88;95400.25;5138566;27;991;-55
2023/09/15 02:32:01;;;;;;;;;;;;;;;16.65;85.67;95411.69;5137028;27;2547;-56
2023/09/15 02:34:27;;;;;;;;;;;;;;;16.65;85.92;95410.84;5138126;27;1056;-55
2023/09/15 02:36:53;;;;;;;;;;;;;;;16.61;85.99;95410.41;5138220;27;1106;-55
2023/09/15 02:39:19;;;;;;;;;;;;;;;16.54;86.16;95410.34;5138110;27;1079;-55
2023/09/15 02:41:45;;;;;;;;;;;;;;;16.44;87.24;95408.97;5138340;27;1974;-55
2023/09/15 02:44:10;;;;;;;;;;;;;;;16.47;86.99;95412.13;5138065;27;1040;-55
2023/09/15 02:46:37;;;;;;;;;;;;;;;16.48;86.36;95418.34;5138230;27;1022;-55
2023/09/15 02:49:03;;;;;;;;;;;;;;;16.53;85.92;95422.16;5137946;27;1032;-56
2023/09/15 02:51:29;;;;;;;;;;;;;;;16.54;85.81;95425.69;5137854;27;1846;-56
2023/09/15 02:53:55;;;;;;;;;;;;;;;16.56;85.76;95424.47;5138311;27;972;-56
2023/09/15 02:56:23;;;;;;;;;;;;;;;16.58;85.86;95425.13;5137836;27;1044;-56
2023/09/15 02:58:49;;;;;;;;;;;;;;;16.34;85.79;95431.72;5137951;27;1311;-56
2023/09/15 03:01:16;;;;;;;;;;;;;;;16.37;86.12;95427.78;5136662;27;2508;-56
2023/09/15 03:03:42;;;;;;;;;;;;;;;16.31;86.64;95426.69;5135775;27;2835;-56
2023/09/15 03:06:09;;;;;;;;;;;;;;;16.31;86.10;95432.06;5137824;27;999;-56
2023/09/15 03:08:35;;;;;;;;;;;;;;;16.20;86.43;95440.66;5137706;27;970;-56
2023/09/15 03:11:01;;;;;;;;;;;;;;;16.12;86.86;95438.06;5137813;27;962;-55
2023/09/15 03:13:27;;;;;;;;;;;;;;;15.99;87.27;95430.66;5137718;27;974;-55
2023/09/15 03:15:53;;;;;;;;;;;;;;;15.84;88.47;95435.22;5137312;27;1115;-55
2023/09/15 03:18:19;;;;;;;;;;;;;;;15.92;88.28;95427.06;5137545;27;1043;-56
2023/09/15 03:20:45;;;;;;;;;;;;;;;16.17;86.85;95439.19;5137484;27;1988;-55
2023/09/15 03:23:11;;;;;;;;;;;;;;;16.27;86.46;95441.56;5137846;27;1004;-56
2023/09/15 03:25:37;;;;;;;;;;;;;;;16.22;86.41;95435.94;5137355;27;1003;-56
2023/09/15 03:28:03;;;;;;;;;;;;;;;16.14;87.08;95436.88;5137246;27;1029;-56
2023/09/15 03:30:29;;;;;;;;;;;;;;;16.04;87.37;95432.78;5136546;27;1003;-55
2023/09/15 03:32:55;;;;;;;;;;;;;;;16.03;87.64;95440.06;5137141;27;1103;-55
2023/09/15 03:35:21;;;;;;;;;;;;;;;16.04;87.16;95435.50;5137123;27;1024;-55
2023/09/15 03:37:47;;;;;;;;;;;;;;;15.99;87.53;95438.75;5137022;27;1056;-56
2023/09/15 03:40:13;;;;;;;;;;;;;;;16.06;86.66;95444.22;5137178;27;979;-55
2023/09/15 03:42:39;;;;;;;;;;;;;;;15.82;87.94;95443.47;5136876;27;1985;-55
2023/09/15 03:45:08;;;;;;;;;;;;;;;15.89;88.00;95438.19;5136837;27;1868;-55
2023/09/15 03:47:34;;;;;;;;;;;;;;;15.82;87.69;95443.47;5137059;27;977;-56
2023/09/15 03:50:01;;;;;;;;;;;;;;;15.87;87.98;95459.94;5136787;27;1036;-56
2023/09/15 03:52:27;;;;;;;;;;;;;;;15.81;88.72;95458.84;5136844;27;969;-56
2023/09/15 03:54:53;;;;;;;;;;;;;;;15.72;88.24;95465.31;5136707;27;1028;-56
2023/09/15 03:57:19;;;;;;;;;;;;;;;15.67;88.69;95467.75;5136903;27;1013;-56
2023/09/15 03:59:45;;;;;;;;;;;;;;;15.72;88.07;95472.56;5136623;27;1327;-56
2023/09/15 04:02:11;;;;;;;;;;;;;;;15.63;88.26;95466.41;5136574;27;1917;-56
2023/09/15 04:04:37;;;;;;;;;;;;;;;15.45;89.03;95474.03;5137198;27;977;-56
2023/09/15 04:07:03;;;;;;;;;;;;;;;15.44;89.75;95483.94;5136837;27;1135;-56
2023/09/15 04:09:29;;;;;;;;;;;;;;;15.47;90.09;95477.38;5137095;27;1024;-56
2023/09/15 04:11:55;;;;;;;;;;;;;;;15.73;88.18;95485.03;5136553;27;1079;-54
2023/09/15 04:14:21;;;;;;;;;;;;;;;15.89;87.43;95482.16;5136378;27;953;-55
2023/09/15 04:16:47;;;;;;;;;;;;;;;15.89;87.45;95489.44;5136472;27;1047;-55
2023/09/15 04:19:13;;;;;;;;;;;;;;;15.89;87.34;95486.72;5136091;27;1083;-56
2023/09/15 04:21:39;;;;;;;;;;;;;;;15.71;88.55;95489.78;5136365;27;2010;-54
2023/09/15 04:24:06;;;;;;;;;;;;;;;15.65;88.90;95485.97;5136218;27;1043;-54
2023/09/15 04:26:31;;;;;;;;;;;;;;;15.63;89.60;95496.06;5135980;27;1969;-54
2023/09/15 04:28:58;;;;;;;;;;;;;;;15.69;89.53;95505.25;5136223;27;1021;-54
2023/09/15 04:31:24;;;;;;;;;;;;;;;15.94;87.99;95511.28;5135917;27;1036;-55
2023/09/15 04:33:50;;;;;;;;;;;;;;;15.94;87.64;95517.50;5135902;27;1861;-55
2023/09/15 04:36:17;;;;;;;;;;;;;;;15.99;87.79;95509.72;5135957;27;1010;-55
2023/09/15 04:38:43;;;;;;;;;;;;;;;16.09;87.56;95514.81;5117816;27;1399;-55
2023/09/15 04:41:09;;;;;;;;;;;;;;;16.10;88.31;95505.69;5134577;27;1913;-55
2023/09/15 04:43:35;;;;;;;;;;;;;;;16.04;88.73;95525.31;5135679;27;977;-54
2023/09/15 04:46:01;;;;;;;;;;;;;;;16.16;88.19;95521.16;5136175;27;969;-55
2023/09/15 04:48:27;;;;;;;;;;;;;;;16.24;87.82;95516.66;5135839;27;965;-55
2023/09/15 04:50:53;;;;;;;;;;;;;;;16.35;87.35;95514.34;5135555;27;1047;-55
2023/09/15 04:53:20;;;;;;;;;;;;;;;16.61;85.86;95515.69;5135537;27;1039;-55
2023/09/15 04:55:49;;;;;;;;;;;;;;;16.49;87.40;95518.03;5135575;27;1059;-55
2023/09/15 04:58:16;;;;;;;;;;;;;;;16.53;87.04;95515.78;5135194;27;1272;-55
2023/09/15 05:00:42;;;;;;;;;;;;;;;16.78;87.09;95517.13;5135460;27;1990;-56
2023/09/15 05:03:08;;;;;;;;;;;;;;;17.06;85.01;95513.72;5135454;27;962;-55
2023/09/15 05:05:34;;;;;;;;;;;;;;;17.16;84.73;95521.50;5117278;27;1019;-55
2023/09/15 05:08:00;;;;;;;;;;;;;;;17.43;83.28;95524.44;5135223;27;1028;-55
2023/09/15 05:10:26;;;;;;;;;;;;;;;17.25;85.15;95522.22;5135223;27;983;-55
2023/09/15 05:12:52;;;;;;;;;;;;;;;17.20;85.40;95533.59;5135335;27;1045;-55
2023/09/15 05:15:18;;;;;;;;;;;;;;;17.44;84.69;95526.13;5135201;27;1040;-55
2023/09/15 05:17:45;;;;;;;;;;;;;;;17.64;83.41;95529.84;5135292;27;1014;-56
2023/09/15 05:20:11;;;;;;;;;;;;;;;17.82;82.67;95525.81;5135235;27;972;-56
2023/09/15 05:22:37;;;;;;;;;;;;;;;17.67;85.58;95534.00;5135215;27;1909;-56
2023/09/15 05:25:04;;;;;;;;;;;;;;;17.67;84.87;95532.13;5135198;27;984;-55
2023/09/15 05:27:31;;;;;;;;;;;;;;;17.82;85.44;95531.22;5134700;27;1028;-54
2023/09/15 05:29:58;;;;;;;;;;;;;;;17.94;85.69;95537.75;5135052;27;961;-55
2023/09/15 05:32:24;;;;;;;;;;;;;;;18.19;83.45;95538.13;5133604;27;2505;-54
2023/09/15 05:34:50;;;;;;;;;;;;;;;18.48;83.18;95534.34;5134699;27;1104;-55
2023/09/15 05:37:16;;;;;;;;;;;;;;;18.73;83.79;95542.78;5116696;27;1007;-55
2023/09/15 05:39:42;;;;;;;;;;;;;;;18.87;82.75;95540.16;5134932;27;969;-55
2023/09/15 05:42:08;;;;;;;;;;;;;;;19.13;80.63;95538.56;5134073;27;2564;-55
2023/09/15 05:44:34;;;;;;;;;;;;;;;19.35;78.25;95531.94;5134118;27;2843;-56
2023/09/15 05:47:00;;;;;;;;;;;;;;;19.33;78.13;95539.44;5134571;27;1017;-55
2023/09/15 05:49:26;;;;;;;;;;;;;;;19.49;76.94;95543.63;5134652;27;944;-55
2023/09/15 05:51:53;;;;;;;;;;;;;;;19.45;76.66;95536.94;5134130;27;1186;-55
2023/09/15 05:54:19;;;;;;;;;;;;;;;19.49;75.98;95536.31;5134576;27;1089;-55
2023/09/15 05:56:45;;;;;;;;;;;;;;;19.59;75.70;95532.34;5134664;27;962;-55
2023/09/15 05:59:11;;;;;;;;;;;;;;;19.83;75.74;95537.19;5134197;27;1311;-57
2023/09/15 06:01:39;;;;;;;;;;;;;;;20.08;73.53;95533.81;5133928;27;1983;-55
2023/09/15 06:04:07;;;;;;;;;;;;;;;20.18;72.65;95530.66;5134624;27;1072;-56
2023/09/15 06:06:34;;;;;;;;;;;;;;;20.14;72.33;95540.28;5134396;27;1056;-56
2023/09/15 06:09:00;;;;;;;;;;;;;;;20.04;73.01;95546.97;5134645;28;1029;-55
2023/09/15 06:11:25;;;;;;;;;;;;;;;20.18;74.18;95544.25;5134176;28;983;-56
2023/09/15 06:13:52;;;;;;;;;;;;;;;20.26;73.59;95538.59;5134289;28;1066;-55
2023/09/15 06:16:18;;;;;;;;;;;;;;;20.18;75.25;95536.94;5134141;28;913;-56
2023/09/15 06:18:44;;;;;;;;;;;;;;;20.20;74.41;95534.84;5134527;28;1023;-56
2023/09/15 06:21:10;;;;;;;;;;;;;;;20.32;73.87;95536.91;5134041;28;1986;-56
2023/09/15 06:23:36;;;;;;;;;;;;;;;20.54;72.95;95535.59;5134173;28;1015;-56
2023/09/15 06:26:02;;;;;;;;;;;;;;;20.47;72.95;95540.22;5134119;28;1041;-55
2023/09/15 06:28:28;;;;;;;;;;;;;;;20.62;72.25;95540.84;5134018;28;1158;-55
2023/09/15 06:30:54;;;;;;;;;;;;;;;21.02;71.16;95537.13;5134413;28;980;-56
2023/09/15 06:33:21;;;;;;;;;;;;;;;21.12;70.70;95539.38;5134280;28;1072;-56
2023/09/15 06:35:47;;;;;;;;;;;;;;;21.25;69.98;95545.53;5134334;28;989;-56
2023/09/15 06:38:13;;;;;;;;;;;;;;;21.14;69.93;95546.25;5133909;28;1044;-56
2023/09/15 06:40:39;;;;;;;;;;;;;;;21.29;70.16;95539.69;5134140;28;1949;-56
2023/09/15 06:43:07;;;;;;;;;;;;;;;21.43;68.08;95541.25;5134271;28;1124;-55
2023/09/15 06:45:33;;;;;;;;;;;;;;;21.37;69.42;95542.97;5133888;28;1016;-55
2023/09/15 06:48:47;;;;;;;;;;;;;;;21.30;69.60;95544.88;5117864;27;1300031;-56
2023/09/15 06:51:14;;;;;;;;;;;;;;;21.30;69.17;95541.34;5152237;27;1099;-56
2023/09/15 06:53:40;;;;;;;;;;;;;;;21.44;68.53;95537.53;5152363;27;1087;-56
2023/09/15 06:56:06;;;;;;;;;;;;;;;21.39;68.68;95534.59;5152556;27;1066;-56
2023/09/15 06:58:31;;;;;;;;;;;;;;;21.47;68.48;95537.06;5152196;27;1223;-56
2023/09/15 07:00:57;;;;;;;;;;;;;;;21.54;68.58;95535.13;5152332;27;1031;-56
2023/09/15 07:03:26;;;;;;;;;;;;;;;21.66;67.28;95537.16;5150840;27;1063;-56
2023/09/15 07:05:52;;;;;;;;;;;;;;;21.90;67.42;95535.50;5152154;27;1861;-56
2023/09/15 07:08:18;;;;;;;;;;;;;;;22.10;67.08;95530.72;5150635;27;2479;-55
2023/09/15 07:10:44;;;;;;;;;;;;;;;22.29;65.90;95539.78;5152033;27;1003;-56
2023/09/15 07:13:10;;;;;;;;;;;;;;;22.40;66.55;95539.03;5152034;27;1031;-56
2023/09/15 07:15:36;;;;;;;;;;;;;;;22.59;66.33;95536.28;5151923;27;1028;-55
2023/09/15 07:18:04;;;;;;;;;;;;;;;22.65;65.45;95537.28;5151896;27;1246;-56
2023/09/15 07:20:30;;;;;;;;;;;;;;;22.66;65.45;95536.22;5149254;27;2496;-55
2023/09/15 07:22:57;;;;;;;;;;;;;;;22.76;64.58;95531.06;5152296;27;1036;-55
2023/09/15 07:25:23;;;;;;;;;;;;;;;22.88;65.67;95525.66;5151823;27;1047;-56
2023/09/15 07:27:50;;;;;;;;;;;;;;;22.89;64.43;95521.91;5150726;27;1918;-55
2023/09/15 07:30:16;;;;;;;;;;;;;;;23.00;64.25;95521.13;5151912;27;1027;-55
2023/09/15 07:32:42;;;;;;;;;;;;;;;23.07;63.86;95521.91;5151641;27;980;-55
2023/09/15 07:35:12;;;;;;;;;;;;;;;22.99;64.04;95528.47;5150176;27;2559;-56
2023/09/15 07:37:38;;;;;;;;;;;;;;;23.16;63.33;95525.97;5151479;27;1107;-55
2023/09/15 07:40:07;;;;;;;;;;;;;;;23.39;62.40;95530.69;5151754;27;1122;-56
2023/09/15 07:42:33;;;;;;;;;;;;;;;23.65;63.47;95522.31;5151658;27;1043;-56
2023/09/15 07:44:59;;;;;;;;;;;;;;;23.85;62.00;95528.31;5151764;27;1126;-55
2023/09/15 07:47:26;;;;;;;;;;;;;;;24.02;61.05;95528.47;5151097;27;1910;-56
2023/09/15 07:49:52;;;;;;;;;;;;;;;24.16;60.04;95520.84;5150239;27;2511;-55
2023/09/15 07:52:19;;;;;;;;;;;;;;;24.20;61.21;95523.94;5151083;27;1028;-56
2023/09/15 07:54:45;;;;;;;;;;;;;;;24.53;60.27;95518.72;5151550;27;999;-56
2023/09/15 07:57:11;;;;;;;;;;;;;;;24.84;60.49;95519.38;5151335;27;965;-56
2023/09/15 07:59:37;;;;;;;;;;;;;;;24.92;59.36;95518.16;5140716;27;1326;-56
2023/09/15 08:02:06;;;;;;;;;;;;;;;25.25;58.29;95513.91;5137585;27;993;-56
2023/09/15 08:04:32;;;;;;;;;;;;;;;25.40;57.29;95511.47;5137363;27;1056;-56
2023/09/15 08:06:58;;;;;;;;;;;;;;;25.37;56.83;95511.94;5137127;27;1909;-56
2023/09/15 08:09:24;;;;;;;;;;;;;;;25.16;56.81;95507.16;5137160;27;1032;-55
2023/09/15 08:11:50;;;;;;;;;;;;;;;25.18;57.00;95503.09;5137239;27;1044;-56
2023/09/15 08:14:16;;;;;;;;;;;;;;;25.25;56.79;95509.28;5136990;27;1036;-56
2023/09/15 08:16:42;;;;;;;;;;;;;;;25.33;56.90;95508.06;5136925;27;1083;-54
2023/09/15 08:19:08;;;;;;;;;;;;;;;25.44;54.99;95514.53;5137165;27;960;-55
2023/09/15 08:21:34;;;;;;;;;;;;;;;25.26;55.53;95510.09;5135645;27;2543;-55
2023/09/15 08:24:00;;;;;;;;;;;;;;;25.22;57.21;95509.72;5137038;27;1059;-55
2023/09/15 08:26:26;;;;;;;;;;;;;;;25.28;56.08;95505.22;5136827;27;1906;-55
2023/09/15 08:28:52;;;;;;;;;;;;;;;25.49;56.69;95509.16;5136759;27;1067;-55
2023/09/15 08:31:18;;;;;;;;;;;;;;;25.38;57.25;95501.84;5136679;27;991;-55
2023/09/15 08:33:44;;;;;;;;;;;;;;;25.44;55.19;95495.38;5136623;27;971;-54
2023/09/15 08:36:10;;;;;;;;;;;;;;;25.83;54.17;95492.75;5136876;27;991;-55
2023/09/15 08:38:35;;;;;;;;;;;;;;;26.06;54.14;95497.25;5135226;27;2448;-55
2023/09/15 08:41:05;;;;;;;;;;;;;;;26.18;54.00;95498.00;5136483;27;1027;-56
2023/09/15 08:43:32;;;;;;;;;;;;;;;26.31;52.18;95491.31;5136422;27;901;-56
2023/09/15 08:45:58;;;;;;;;;;;;;;;26.44;50.55;95493.69;5135115;27;2558;-55
2023/09/15 08:48:27;;;;;;;;;;;;;;;26.63;50.58;95482.47;5136051;27;1902;-55
2023/09/15 08:50:54;;;;;;;;;;;;;;;26.77;50.31;95481.03;5136317;27;1119;-56
2023/09/15 08:53:21;;;;;;;;;;;;;;;26.54;50.33;95484.81;5136487;27;1037;-56
2023/09/15 08:55:47;;;;;;;;;;;;;;;26.43;50.95;95483.84;5135180;27;2529;-55
2023/09/15 08:58:14;;;;;;;;;;;;;;;26.62;50.77;95487.13;5136003;27;1286;-55
2023/09/15 09:00:40;;;;;;;;;;;;;;;26.77;50.40;95482.91;5136124;27;972;-56
2023/09/15 09:03:06;;;;;;;;;;;;;;;27.02;48.94;95475.00;5136042;27;1269;-55
2023/09/15 09:05:32;;;;;;;;;;;;;;;27.21;47.68;95471.91;5134961;27;1008;-56
2023/09/15 09:07:59;;;;;;;;;;;;;;;27.18;47.54;95476.00;5136260;27;1910;-55
2023/09/15 09:10:25;;;;;;;;;;;;;;;27.32;47.47;95468.22;5134989;27;1039;-55
2023/09/15 09:12:51;;;;;;;;;;;;;;;27.23;49.79;95467.81;5136111;27;974;-55
2023/09/15 09:15:20;;;;;;;;;;;;;;;27.13;48.88;95469.63;5135663;27;1003;-56
2023/09/15 09:17:47;;;;;;;;;;;;;;;26.81;50.28;95473.13;5136050;27;960;-56
2023/09/15 09:20:25;;;;;;;;;;;;;;;26.65;50.24;95463.84;5135652;27;1016;-56
2023/09/15 09:22:52;;;;;;;;;;;;;;;26.72;50.82;95471.91;5135627;27;1095;-55
2023/09/15 09:25:28;;;;;;;;;;;;;;;26.59;48.99;95473.06;5136132;27;961;-56
2023/09/15 09:27:55;;;;;;;;;;;;;;;26.46;51.14;95469.63;5135454;27;1990;-56
2023/09/15 09:30:29;;;;;;;;;;;;;;;26.55;50.02;95470.00;5135391;27;1032;-56
2023/09/15 09:32:56;;;;;;;;;;;;;;;26.72;49.02;95471.91;5135786;27;957;-56
2023/09/15 09:35:22;;;;;;;;;;;;;;;26.71;49.34;95467.47;5135327;27;1199;-56
2023/09/15 09:37:48;;;;;;;;;;;;;;;26.71;49.61;95464.75;5135667;27;1007;-55
2023/09/15 09:40:15;;;;;;;;;;;;;;;26.64;50.06;95457.53;5135134;27;1099;-56
2023/09/15 09:42:41;;;;;;;;;;;;;;;26.64;49.07;95476.75;5135203;27;1100;-54
2023/09/15 09:45:08;;;;;;;;;;;;;;;26.63;49.77;95457.78;5135201;27;1032;-55
2023/09/15 09:47:34;;;;;;;;;;;;;;;26.66;50.16;95455.38;5134871;27;1906;-56
2023/09/15 09:50:04;;;;;;;;;;;;;;;26.74;49.70;95459.59;5135167;27;1083;-56
2023/09/15 09:52:30;;;;;;;;;;;;;;;26.98;49.20;95456.59;5135313;27;1032;-56
2023/09/15 09:54:56;;;;;;;;;;;;;;;27.12;48.83;95459.75;5135337;27;984;-56
2023/09/15 09:57:22;;;;;;;;;;;;;;;27.16;48.35;95455.38;5134811;27;1099;-56
2023/09/15 09:59:48;;;;;;;;;;;;;;;27.43;48.16;95445.28;5116124;27;1250;-55
2023/09/15 10:02:14;;;;;;;;;;;;;;;27.57;46.58;95448.41;5114746;27;1008;-56
2023/09/15 10:04:40;;;;;;;;;;;;;;;27.64;45.78;95451.78;5114668;28;1049;-55
2023/09/15 10:07:06;;;;;;;;;;;;;;;27.68;47.19;95435.59;5114258;28;1910;-56
2023/09/15 10:09:32;;;;;;;;;;;;;;;27.86;45.85;95448.09;5114170;28;1253;-56
2023/09/15 10:11:58;;;;;;;;;;;;;;;28.03;44.77;95445.22;5114185;28;973;-55
2023/09/15 10:14:25;;;;;;;;;;;;;;;27.76;46.06;95432.34;5114085;28;1095;-56
2023/09/15 10:16:51;;;;;;;;;;;;;;;27.63;46.26;95438.28;5114336;28;1043;-55
2023/09/15 10:19:18;;;;;;;;;;;;;;;27.68;47.68;95427.38;5114342;28;1002;-56
2023/09/15 10:21:44;;;;;;;;;;;;;;;27.57;46.80;95436.59;5113869;27;1044;-55
2023/09/15 10:24:11;;;;;;;;;;;;;;;27.47;45.41;95437.34;5114274;28;1048;-55
2023/09/15 10:26:41;;;;;;;;;;;;;;;27.20;45.31;95426.34;5113860;28;1909;-56
2023/09/15 10:29:10;;;;;;;;;;;;;;;27.26;46.56;95423.44;5114204;28;964;-56
2023/09/15 10:31:36;;;;;;;;;;;;;;;27.28;47.41;95425.91;5113986;28;1975;-55
2023/09/15 10:34:04;;;;;;;;;;;;;;;27.26;46.84;95426.16;5112717;28;1000;-55
2023/09/15 10:36:32;;;;;;;;;;;;;;;27.00;47.00;95426.97;5113802;28;1060;-56
2023/09/15 10:38:58;;;;;;;;;;;;;;;26.90;47.43;95427.69;5113898;28;1095;-55
2023/09/15 10:41:25;;;;;;;;;;;;;;;27.05;46.57;95421.50;5113747;28;1107;-55
2023/09/15 10:43:51;;;;;;;;;;;;;;;27.42;47.50;95421.63;5114009;28;1040;-56
2023/09/15 10:46:17;;;;;;;;;;;;;;;27.75;45.69;95425.19;5114883;27;2467;-55
2023/09/15 10:48:48;;;;;;;;;;;;;;;28.04;45.06;95425.72;5113940;28;1988;-55
2023/09/15 10:51:22;;;;;;;;;;;;;;;28.26;44.46;95419.25;5113609;28;1297;-56
2023/09/15 10:53:49;;;;;;;;;;;;;;;28.41;43.04;95429.50;5113686;28;1035;-56
2023/09/15 10:56:17;;;;;;;;;;;;;;;28.68;42.43;95421.13;5113924;28;1032;-55
2023/09/15 10:58:44;;;;;;;;;;;;;;;28.60;42.84;95416.16;5123395;28;1248;-56
2023/09/15 11:01:10;;;;;;;;;;;;;;;28.61;42.35;95413.13;5134263;27;1030;-56
2023/09/15 11:03:37;;;;;;;;;;;;;;;28.67;42.73;95410.41;5134232;28;969;-56
2023/09/15 11:06:08;;;;;;;;;;;;;;;28.70;42.18;95407.09;5134120;27;1967;-55
2023/09/15 11:08:35;;;;;;;;;;;;;;;28.46;43.23;95403.94;5134215;27;1906;-55
2023/09/15 11:11:07;;;;;;;;;;;;;;;28.33;43.43;95397.03;5134443;27;951;-55
2023/09/15 11:13:33;;;;;;;;;;;;;;;28.13;44.24;95392.22;5134171;27;1007;-55
2023/09/15 11:16:00;;;;;;;;;;;;;;;28.14;43.90;95394.72;5134055;27;1963;-56
2023/09/15 11:18:26;;;;;;;;;;;;;;;28.31;43.66;95396.47;5133972;27;1024;-56
2023/09/15 11:20:54;;;;;;;;;;;;;;;28.19;41.40;95392.00;5133941;27;969;-55
2023/09/15 11:23:26;;;;;;;;;;;;;;;27.92;43.58;95383.03;5134171;27;961;-55
2023/09/15 11:26:03;;;;;;;;;;;;;;;27.80;43.81;95384.03;5133934;28;1033;-56
2023/09/15 11:28:36;;;;;;;;;;;;;;;27.81;43.05;95385.69;5134102;27;1976;-56
2023/09/15 11:31:05;;;;;;;;;;;;;;;27.78;43.66;95374.41;5133915;27;1024;-56
2023/09/15 11:33:31;;;;;;;;;;;;;;;27.94;43.68;95372.63;5134126;27;971;-56
2023/09/15 11:35:57;;;;;;;;;;;;;;;28.10;41.76;95379.03;5136531;27;1079;-56
2023/09/15 11:38:23;;;;;;;;;;;;;;;28.36;42.94;95367.09;5137885;27;1019;-56
2023/09/15 11:40:51;;;;;;;;;;;;;;;28.53;43.76;95355.91;5137774;27;1190;-56
2023/09/15 11:43:21;;;;;;;;;;;;;;;28.70;42.95;95352.09;5137828;27;1060;-56
2023/09/15 11:45:48;;;;;;;;;;;;;;;28.69;42.27;95350.44;5137657;27;975;-56
2023/09/15 11:48:14;;;;;;;;;;;;;;;28.67;42.76;95349.91;5134816;27;2644;-56
2023/09/15 11:50:41;;;;;;;;;;;;;;;28.73;42.10;95343.31;5137590;27;1035;-55
2023/09/15 11:53:07;;;;;;;;;;;;;;;28.72;42.56;95339.72;5137516;27;935;-56
2023/09/15 11:55:34;;;;;;;;;;;;;;;28.57;42.83;95339.66;5137452;27;773;-56
2023/09/15 11:58:02;;;;;;;;;;;;;;;28.19;42.38;95338.94;5133620;27;1255;-56
2023/09/15 12:00:30;;;;;;;;;;;;;;;28.15;41.97;95335.06;5116752;28;1117;-55
2023/09/15 12:02:58;;;;;;;;;;;;;;;28.21;43.64;95323.84;5116784;28;1101;-55
2023/09/15 12:05:26;;;;;;;;;;;;;;;28.31;43.22;95328.56;5123131;27;2571;-56
2023/09/15 12:07:52;;;;;;;;;;;;;;;28.39;43.93;95321.72;5137409;27;1918;-56
2023/09/15 12:10:21;;;;;;;;;;;;;;;28.31;43.46;95322.25;5137309;27;984;-55
2023/09/15 12:12:47;;;;;;;;;;;;;;;28.19;43.53;95314.19;5137217;27;975;-56
2023/09/15 12:15:14;;;;;;;;;;;;;;;28.14;44.35;95312.28;5136966;27;1043;-55
2023/09/15 12:17:47;;;;;;;;;;;;;;;27.88;42.63;95314.03;5137227;27;983;-56
2023/09/15 12:20:13;;;;;;;;;;;;;;;27.79;44.04;95316.47;5136820;27;1099;-55
2023/09/15 12:22:40;;;;;;;;;;;;;;;27.77;43.55;95315.06;5136889;27;1040;-56
2023/09/15 12:25:08;;;;;;;;;;;;;;;27.79;43.27;95308.22;5136829;27;1067;-56
2023/09/15 12:27:36;;;;;;;;;;;;;;;27.69;43.02;95313.66;5136654;27;1982;-55
2023/09/15 12:30:06;;;;;;;;;;;;;;;27.67;42.90;95309.53;5137022;27;1035;-55
2023/09/15 12:32:33;;;;;;;;;;;;;;;27.69;42.86;95305.41;5135993;27;1704;-55
2023/09/15 12:35:02;;;;;;;;;;;;;;;27.77;42.17;95307.63;5135618;27;2696;-55
2023/09/15 12:37:30;;;;;;;;;;;;;;;27.68;43.16;95303.75;5133986;27;1597;-55
2023/09/15 12:39:56;;;;;;;;;;;;;;;27.62;43.53;95289.19;5126586;27;1881;-56
2023/09/15 12:42:22;;;;;;;;;;;;;;;27.71;43.79;95285.91;5135325;27;2975;-56
2023/09/15 12:44:48;;;;;;;;;;;;;;;27.77;44.72;95280.16;5136734;27;1015;-56
2023/09/15 12:47:14;;;;;;;;;;;;;;;27.74;43.33;95286.22;5133643;27;1988;-56
2023/09/15 12:49:40;;;;;;;;;;;;;;;27.78;43.38;95283.75;5124802;27;1589;-56
2023/09/15 12:52:06;;;;;;;;;;;;;;;27.76;44.41;95274.97;5115894;28;968;-56
2023/09/15 12:54:33;;;;;;;;;;;;;;;27.70;43.98;95279.59;5121543;27;2851;-56
2023/09/15 12:56:59;;;;;;;;;;;;;;;27.63;46.35;95276.25;5136259;27;1028;-56
2023/09/15 12:59:26;;;;;;;;;;;;;;;27.48;47.46;95276.16;5136348;27;1537;-56